Hamill, South Dakota
Current Conditions -  °F | °C
As of 8:53 AM on Wednesday 22 Oct 2014 (Local Time) from KICR Reporting Station
Broken Clouds Broken Clouds  
Wind Chill: 64°   Ceiling: 11000
Heat Index: 64°   Visibility: 10mi
Dew Point: 48°   Wind: 13mph
Humidity: 56%   Direction: 250°WSW
Pressure: 29.92"   Gusts: NA
Location:  43.59°N, 99.68°W
Report Text: KICR 221353Z AUTO 25011KT 10SM SCT090 BKN110 18/09 A2992 RMK AO2 PRESRR SLP121 T01780089
Loading
Personal Weather Stations






























Interactive Weather Map
Tropical Storm Tracking
New forecast layout! Learn more

10-Day Weather Forecast

Advertisements
Track Severe Weather on mobile